Time;durP1;ratioP1;P1;durP2;ratioP2;P2;SDS_P1;SDS_P2;PMS_P1;PMS_P2;Temp;Humidity;BMP_temperature;BMP_pressure;BME280_temperature;BME280_humidity;BME280_pressure;Samples;Min_cycle;Max_cycle;Signal;HPM_P1;HPM_P2
2022/05/21 00:02:08;;;;;;;20.42;7.53;;;;;;;17.92;63.80;98922.63;5030980;28;20119;-78
2022/05/21 00:04:35;;;;;;;8.70;7.13;;;;;;;17.87;63.01;98919.97;5065014;28;20035;-79
2022/05/21 00:07:01;;;;;;;8.52;7.63;;;;;;;17.84;63.48;98945.66;5054281;28;20032;-82
2022/05/21 00:09:27;;;;;;;9.25;8.20;;;;;;;17.82;62.58;98942.47;5066969;28;20039;-81
2022/05/21 00:11:54;;;;;;;9.68;7.15;;;;;;;17.86;62.11;98967.81;5033901;28;20029;-82
2022/05/21 00:14:20;;;;;;;11.55;7.18;;;;;;;17.77;62.36;98945.25;5061583;28;20487;-81
2022/05/21 00:16:46;;;;;;;10.02;6.18;;;;;;;17.73;62.24;98951.53;5053822;28;20084;-81
2022/05/21 00:19:12;;;;;;;9.20;6.47;;;;;;;17.63;61.81;98925.47;5067658;28;20457;-83
2022/05/21 00:21:37;;;;;;;12.10;6.20;;;;;;;17.67;61.93;98950.78;5068242;28;20043;-82
2022/05/21 00:24:03;;;;;;;8.43;5.25;;;;;;;17.62;62.18;98955.47;5063230;28;20024;-80
2022/05/21 00:26:28;;;;;;;6.65;4.75;;;;;;;17.60;61.44;98947.66;5068408;28;20024;-79
2022/05/21 00:28:54;;;;;;;6.68;5.15;;;;;;;17.59;61.96;98943.34;5052197;28;20041;-79
2022/05/21 00:31:20;;;;;;;6.15;4.80;;;;;;;17.59;61.87;98953.34;5076637;28;20079;-79
2022/05/21 00:33:46;;;;;;;6.22;4.30;;;;;;;17.50;61.36;98944.25;5067751;28;20047;-80
2022/05/21 00:36:12;;;;;;;6.25;4.30;;;;;;;17.57;61.17;98964.44;5066835;28;20119;-80
2022/05/21 00:38:38;;;;;;;6.40;4.25;;;;;;;17.55;61.15;98958.53;5074087;28;20060;-79
2022/05/21 00:41:05;;;;;;;6.03;3.90;;;;;;;17.53;60.95;98959.91;5069026;28;20091;-80
2022/05/21 00:43:52;;;;;;;3.42;3.13;;;;;;;17.48;61.40;98970.72;5067839;28;20041;-80
2022/05/21 00:46:38;;;;;;;9.50;3.30;;;;;;;17.36;61.43;98973.88;5067642;28;20080;-79
2022/05/21 00:49:17;;;;;;;7.25;3.72;;;;;;;17.40;60.84;98982.19;5063351;28;20024;-80
2022/05/21 00:51:55;;;;;;;3.17;2.88;;;;;;;17.38;60.96;98989.75;5071266;28;20036;-79
2022/05/21 00:54:24;;;;;;;4.07;2.63;;;;;;;17.29;61.06;98983.41;5070263;28;20425;-80
2022/05/21 00:56:54;;;;;;;4.20;3.45;;;;;;;17.28;60.58;98993.38;5068713;28;20024;-80
2022/05/21 01:02:07;;;;;;;3.65;2.30;;;;;;;17.23;60.39;99002.34;5077100;28;20089;-79
2022/05/21 01:04:33;;;;;;;5.60;2.38;;;;;;;17.26;61.13;98998.25;5061549;28;20028;-79
2022/05/21 01:07:00;;;;;;;2.75;2.10;;;;;;;17.17;60.66;99013.47;5064280;28;20027;-79
2022/05/21 01:09:26;;;;;;;2.00;1.90;;;;;;;17.10;60.84;99010.34;5064943;28;20028;-79
2022/05/21 01:11:51;;;;;;;4.63;1.90;;;;;;;17.14;60.74;99020.25;5070769;28;20067;-79
2022/05/21 01:14:20;;;;;;;2.72;1.85;;;;;;;17.11;61.22;99004.63;5060950;28;20033;-78
2022/05/21 01:16:46;;;;;;;4.00;2.67;;;;;;;17.12;61.00;99013.53;5068203;28;20078;-79
2022/05/21 01:19:12;;;;;;;2.17;1.80;;;;;;;17.20;60.62;99010.22;5062005;28;20495;-78
2022/05/21 01:21:38;;;;;;;2.42;1.73;;;;;;;17.07;60.94;99006.31;5069234;28;20036;-78
2022/05/21 01:24:09;;;;;;;2.00;1.73;;;;;;;16.97;61.19;99006.41;5070468;28;20189;-78
2022/05/21 01:26:35;;;;;;;2.03;1.83;;;;;;;17.11;60.75;99009.22;5067333;28;20024;-78
2022/05/21 01:29:09;;;;;;;6.10;2.28;;;;;;;17.05;60.83;99018.47;5061725;28;20033;-79
2022/05/21 01:31:34;;;;;;;3.30;1.92;;;;;;;17.16;60.33;99011.88;5065809;28;20027;-78
2022/05/21 01:34:00;;;;;;;2.40;2.20;;;;;;;17.10;60.82;99013.03;5052053;28;20110;-78
2022/05/21 01:36:25;;;;;;;5.07;2.13;;;;;;;17.06;60.85;99015.47;5058272;28;20032;-79
2022/05/21 01:38:51;;;;;;;3.75;2.35;;;;;;;16.98;61.19;99010.72;5064449;28;20037;-79
2022/05/21 01:41:16;;;;;;;3.03;2.20;;;;;;;16.97;60.74;99022.56;5065994;28;20025;-78
2022/05/21 01:46:26;;;;;;;6.53;2.60;;;;;;;16.87;60.98;99027.28;5060876;28;20035;-79
2022/05/21 01:48:52;;;;;;;3.95;2.17;;;;;;;16.74;61.39;99033.34;5054870;28;20123;-79
2022/05/21 01:51:18;;;;;;;3.33;2.75;;;;;;;16.83;61.25;99028.94;5072059;28;20473;-80
2022/05/21 01:53:43;;;;;;;3.63;2.50;;;;;;;16.78;61.56;99047.84;5069361;28;20107;-77
2022/05/21 01:56:10;;;;;;;6.10;2.78;;;;;;;16.75;60.96;99056.53;5077381;28;20043;-80
2022/05/21 01:58:36;;;;;;;5.85;3.50;;;;;;;16.81;60.80;99058.06;5067961;28;20035;-79
2022/05/21 02:01:03;;;;;;;8.70;3.90;;;;;;;16.72;61.04;99067.84;5069919;28;20028;-80
2022/05/21 02:03:29;;;;;;;4.82;3.63;;;;;;;16.72;60.76;99062.47;5059436;28;20047;-80
2022/05/21 02:05:54;;;;;;;3.92;3.53;;;;;;;16.74;60.99;99062.97;5069889;28;20403;-80
2022/05/21 02:08:20;;;;;;;6.32;3.25;;;;;;;16.67;61.76;99065.19;5063880;28;20055;-81
2022/05/21 02:10:46;;;;;;;5.07;4.00;;;;;;;16.68;61.07;99069.50;5068471;28;20032;-81
2022/05/21 02:13:17;;;;;;;6.15;3.55;;;;;;;16.64;61.83;99077.38;5068309;28;20027;-81
2022/05/21 02:15:43;;;;;;;5.28;3.80;;;;;;;16.50;62.09;99068.31;5062360;28;20105;-80
2022/05/21 02:18:08;;;;;;;5.13;3.88;;;;;;;16.58;61.65;99085.78;5066564;28;20447;-81
2022/05/21 02:20:34;;;;;;;5.35;4.82;;;;;;;16.63;62.19;99085.72;5055043;28;20063;-80
2022/05/21 02:22:59;;;;;;;5.03;4.30;;;;;;;16.68;61.89;99099.97;5034695;28;20171;-81
2022/05/21 02:25:24;;;;;;;7.72;5.18;;;;;;;16.58;62.24;99083.06;5064927;28;20513;-81
2022/05/21 02:27:49;;;;;;;5.93;4.88;;;;;;;16.56;62.40;99104.91;5052920;28;20032;-81
2022/05/21 02:30:15;;;;;;;7.60;5.28;;;;;;;16.68;61.82;99096.47;5070141;28;20025;-81
2022/05/21 02:32:40;;;;;;;6.55;5.28;;;;;;;16.72;62.21;99105.59;5066322;28;20033;-80
2022/05/21 02:35:06;;;;;;;7.53;5.00;;;;;;;16.75;61.95;99105.03;5062439;28;20036;-80
2022/05/21 02:40:15;;;;;;;7.38;6.32;;;;;;;16.76;61.84;99110.13;5067396;28;20035;-81
2022/05/21 02:42:43;;;;;;;6.05;4.97;;;;;;;16.64;62.22;99109.72;5063313;28;20398;-80
2022/05/21 02:45:11;;;;;;;6.13;5.60;;;;;;;16.73;61.97;99109.91;5051389;28;20086;-80
2022/05/21 02:47:37;;;;;;;6.25;5.60;;;;;;;16.69;62.20;99111.53;5067463;28;20021;-82
2022/05/21 02:50:03;;;;;;;9.20;6.00;;;;;;;16.56;62.77;99110.28;5066633;28;20333;-81
2022/05/21 02:52:29;;;;;;;6.57;5.03;;;;;;;16.65;61.92;99115.88;5065561;28;20058;-81
2022/05/21 02:54:54;;;;;;;6.80;5.15;;;;;;;16.69;61.86;99125.81;5035739;28;20033;-81
2022/05/21 02:57:19;;;;;;;8.02;5.00;;;;;;;16.67;62.08;99129.88;5052808;28;20068;-81
2022/05/21 02:59:48;;;;;;;8.98;5.32;;;;;;;16.62;61.76;99129.94;5055132;28;20028;-82
2022/05/21 03:02:14;;;;;;;4.82;4.43;;;;;;;16.58;61.63;99126.97;5047714;28;20032;-81
2022/05/21 03:04:40;;;;;;;6.32;4.13;;;;;;;16.61;62.01;99128.31;5070162;28;20031;-81
2022/05/21 03:07:05;;;;;;;5.53;5.03;;;;;;;16.60;61.43;99129.41;5056596;28;20083;-81
2022/05/21 03:12:14;;;;;;;4.45;4.05;;;;;;;16.64;60.93;99136.66;5062519;28;20036;-79
2022/05/21 03:14:39;;;;;;;4.80;4.07;;;;;;;16.66;61.62;99129.09;5058718;28;20041;-79
2022/05/21 03:17:05;;;;;;;4.32;3.92;;;;;;;16.60;61.43;99132.13;5066659;28;20510;-79
2022/05/21 03:19:33;;;;;;;5.38;3.70;;;;;;;16.59;61.40;99133.19;5065449;28;20055;-79
2022/05/21 03:21:59;;;;;;;6.90;4.15;;;;;;;16.62;61.54;99136.09;5067020;28;20033;-79
2022/05/21 03:24:25;;;;;;;4.88;3.80;;;;;;;16.61;61.58;99134.53;5051138;28;20037;-80
2022/05/21 03:26:51;;;;;;;18.08;5.25;;;;;;;16.41;62.15;99135.44;5048417;28;20166;-79
2022/05/21 03:29:16;;;;;;;4.80;4.05;;;;;;;16.57;61.49;99138.06;5063358;28;20098;-79
2022/05/21 03:31:42;;;;;;;7.85;4.95;;;;;;;16.55;61.74;99140.22;5067641;28;20028;-79
2022/05/21 03:34:08;;;;;;;6.63;4.80;;;;;;;16.59;61.48;99131.31;5057658;28;20085;-79
2022/05/21 03:36:34;;;;;;;5.60;4.38;;;;;;;16.57;61.56;99140.75;5063635;28;20376;-79
2022/05/21 03:39:00;;;;;;;8.07;4.40;;;;;;;16.49;61.38;99136.72;5057437;28;20051;-78
2022/05/21 03:41:26;;;;;;;8.82;5.15;;;;;;;16.54;61.32;99139.41;5066485;28;20020;-79
2022/05/21 03:43:54;;;;;;;4.25;3.85;;;;;;;16.48;61.95;99143.19;5065014;28;20506;-78
2022/05/21 03:46:19;;;;;;;7.93;4.00;;;;;;;16.48;61.44;99135.94;5070593;28;20572;-81
2022/05/21 03:48:45;;;;;;;4.43;4.03;;;;;;;16.56;61.41;99141.81;5066335;28;20504;-80
2022/05/21 03:51:11;;;;;;;6.78;4.45;;;;;;;16.57;61.29;99140.75;5062053;28;20067;-80
2022/05/21 03:53:36;;;;;;;6.22;4.40;;;;;;;16.55;61.19;99142.91;5057783;28;20032;-77
2022/05/21 03:56:02;;;;;;;5.35;3.92;;;;;;;16.49;61.41;99132.13;5065701;28;20037;-78
2022/05/21 03:58:28;;;;;;;5.68;4.75;;;;;;;16.53;61.49;99134.31;5067740;28;20016;-78
2022/05/21 04:00:54;;;;;;;5.78;4.25;;;;;;;16.48;61.08;99138.63;5067222;28;20040;-77
2022/05/21 04:03:19;;;;;;;10.30;5.20;;;;;;;16.44;61.48;99134.88;5051076;28;20036;-80
2022/05/21 04:05:44;;;;;;;5.80;4.40;;;;;;;16.53;61.06;99142.41;5063947;28;20418;-79
2022/05/21 04:08:10;;;;;;;6.05;4.85;;;;;;;16.53;61.45;99145.91;5060043;28;20025;-79
2022/05/21 04:10:36;;;;;;;6.88;4.95;;;;;;;16.47;61.15;99145.09;5071368;28;20054;-80
2022/05/21 04:13:01;;;;;;;5.80;5.20;;;;;;;16.42;61.48;99144.31;5072569;28;20020;-80
2022/05/21 04:15:27;;;;;;;8.55;5.38;;;;;;;16.41;61.66;99142.69;5064747;28;20048;-80
2022/05/21 04:17:53;;;;;;;9.20;5.35;;;;;;;16.44;61.79;99145.66;5066058;28;20044;-80
2022/05/21 04:20:21;;;;;;;6.13;5.53;;;;;;;16.35;61.56;99139.25;5068177;28;20029;-79
2022/05/21 04:22:47;;;;;;;7.70;5.53;;;;;;;16.18;62.20;99128.03;5057466;28;20021;-78
2022/05/21 04:25:12;;;;;;;7.35;5.13;;;;;;;16.21;62.07;99143.63;5061571;28;20547;-78
2022/05/21 04:27:39;;;;;;;6.35;5.75;;;;;;;16.27;61.96;99126.34;5069267;28;20016;-82
2022/05/21 04:30:08;;;;;;;8.68;5.57;;;;;;;16.37;61.91;99134.38;5068984;28;20032;-83
2022/05/21 04:32:33;;;;;;;5.75;5.20;;;;;;;16.66;61.69;99133.69;5066116;28;20025;-82
2022/05/21 04:34:58;;;;;;;7.18;6.38;;;;;;;16.79;60.89;99130.34;5035015;28;20048;-80
2022/05/21 04:37:24;;;;;;;10.30;5.80;;;;;;;16.88;60.92;99136.75;5056409;28;20489;-81
2022/05/21 04:39:49;;;;;;;7.32;5.88;;;;;;;16.92;61.15;99125.13;5058305;28;20036;-81
2022/05/21 04:42:14;;;;;;;6.93;5.50;;;;;;;16.98;60.81;99131.25;5069792;28;20031;-81
2022/05/21 04:44:39;;;;;;;6.18;5.57;;;;;;;17.04;60.68;99136.31;5062197;28;20564;-81
2022/05/21 04:47:05;;;;;;;6.70;5.82;;;;;;;17.07;60.85;99143.06;5050443;28;20888;-82
2022/05/21 04:49:30;;;;;;;7.78;5.43;;;;;;;17.10;60.74;99143.28;5052566;28;20166;-82
2022/05/21 04:51:56;;;;;;;5.72;4.78;;;;;;;17.10;60.68;99137.09;5069475;28;20043;-82
2022/05/21 04:54:21;;;;;;;8.02;5.57;;;;;;;17.11;60.65;99134.13;5065520;28;20067;-84
2022/05/21 04:56:47;;;;;;;6.40;5.30;;;;;;;17.08;60.97;99134.66;5062499;28;20067;-83
2022/05/21 04:59:12;;;;;;;5.38;4.78;;;;;;;17.10;60.55;99137.88;5036886;28;20054;-82
2022/05/21 05:01:39;;;;;;;5.78;4.78;;;;;;;17.09;60.60;99146.25;5052856;28;20036;-79
2022/05/21 05:04:05;;;;;;;5.70;4.63;;;;;;;17.04;61.05;99147.13;5063156;28;20025;-81
2022/05/21 05:06:31;;;;;;;8.48;4.78;;;;;;;17.01;61.21;99146.88;5044402;28;20021;-79
2022/05/21 05:08:57;;;;;;;6.00;5.13;;;;;;;17.04;60.80;99154.38;5079936;28;20506;-79
2022/05/21 05:11:23;;;;;;;5.40;4.90;;;;;;;17.00;61.14;99151.47;5082084;28;20552;-80
2022/05/21 05:13:48;;;;;;;7.45;5.63;;;;;;;16.83;61.61;99139.47;5084693;28;20021;-80
2022/05/21 05:16:14;;;;;;;5.40;4.60;;;;;;;16.84;61.45;99147.28;5088111;28;20089;-80
2022/05/21 05:18:39;;;;;;;6.72;5.00;;;;;;;16.86;61.86;99152.41;5086160;28;20031;-80
2022/05/21 05:21:04;;;;;;;6.65;4.28;;;;;;;16.81;61.88;99149.75;5080525;28;20514;-80
2022/05/21 05:23:30;;;;;;;6.15;4.88;;;;;;;16.66;61.93;99142.56;5068535;28;20021;-80
2022/05/21 05:25:55;;;;;;;8.73;4.97;;;;;;;16.60;61.91;99149.06;5083191;28;20037;-80
2022/05/21 05:28:23;;;;;;;5.68;5.18;;;;;;;16.56;62.34;99133.72;5080531;28;20040;-80
2022/05/21 05:30:49;;;;;;;6.45;5.38;;;;;;;16.80;61.66;99131.94;5082814;28;20105;-83
2022/05/21 05:33:15;;;;;;;5.53;5.03;;;;;;;16.90;61.13;99132.69;5069788;28;20103;-77
2022/05/21 05:35:41;;;;;;;5.35;4.63;;;;;;;17.01;61.12;99133.41;5075906;28;20032;-79
2022/05/21 05:38:09;;;;;;;5.03;4.53;;;;;;;17.07;60.55;99141.16;5074498;28;20031;-79
2022/05/21 05:40:35;;;;;;;5.20;4.53;;;;;;;17.09;61.00;99133.59;5075840;28;20025;-78
2022/05/21 05:43:01;;;;;;;4.63;4.22;;;;;;;17.15;60.44;99137.03;5076146;28;20430;-80
2022/05/21 05:45:27;;;;;;;5.00;4.22;;;;;;;17.27;60.25;99139.34;5078563;28;20039;-80
2022/05/21 05:47:52;;;;;;;7.38;4.68;;;;;;;17.27;59.97;99133.97;5074487;28;20021;-79
2022/05/21 05:50:18;;;;;;;4.05;3.65;;;;;;;17.30;60.31;99133.41;5072636;28;20033;-80
2022/05/21 05:52:43;;;;;;;8.88;4.55;;;;;;;17.31;60.09;99133.13;5071793;28;20032;-80
2022/05/21 05:55:09;;;;;;;4.50;4.10;;;;;;;17.31;59.58;99143.91;5078642;28;20028;-79
2022/05/21 05:57:34;;;;;;;5.43;4.40;;;;;;;17.27;59.48;99136.66;5058556;28;20047;-80
2022/05/21 06:00:00;;;;;;;5.28;4.72;;;;;;;17.30;59.40;99150.38;5043927;28;20050;-79
2022/05/21 06:05:16;;;;;;;5.32;3.88;;;;;;;17.29;59.53;99158.75;5076712;28;20118;-78
2022/05/21 06:07:47;;;;;;;5.65;3.78;;;;;;;17.24;59.08;99159.63;5073467;28;20109;-78
2022/05/21 06:10:16;;;;;;;4.88;3.28;;;;;;;17.15;59.50;99156.72;5075025;28;20035;-81
2022/05/21 06:12:41;;;;;;;4.25;3.67;;;;;;;17.17;59.74;99159.94;5078827;28;20421;-79
2022/05/21 06:15:09;;;;;;;8.30;3.45;;;;;;;17.20;59.61;99174.75;5075428;28;20017;-81
2022/05/21 06:17:34;;;;;;;6.22;3.58;;;;;;;17.20;59.22;99170.19;5076911;28;20501;-80
2022/05/21 06:19:59;;;;;;;4.80;3.63;;;;;;;17.16;59.52;99168.34;5069614;28;20064;-78
2022/05/21 06:22:25;;;;;;;3.28;2.97;;;;;;;17.14;59.29;99167.81;5078533;28;20029;-79
2022/05/21 06:24:51;;;;;;;7.18;4.07;;;;;;;17.09;59.62;99175.94;5077415;28;20033;-78
2022/05/21 06:27:17;;;;;;;4.45;3.28;;;;;;;17.11;59.67;99184.53;5073755;28;20020;-78
2022/05/21 06:29:42;;;;;;;6.50;4.00;;;;;;;17.05;59.58;99164.09;5071781;28;20060;-79
2022/05/21 06:32:08;;;;;;;8.48;4.25;;;;;;;17.07;60.36;99165.44;5062284;28;20101;-78
2022/05/21 06:34:37;;;;;;;5.00;3.88;;;;;;;17.11;59.70;99168.38;5064669;28;20515;-78
2022/05/21 06:37:08;;;;;;;4.82;3.50;;;;;;;17.06;60.13;99171.09;5049369;28;20047;-78
2022/05/21 06:39:34;;;;;;;5.80;4.20;;;;;;;17.00;59.89;99166.84;5063233;28;20024;-82
2022/05/21 06:42:00;;;;;;;5.40;3.53;;;;;;;16.96;60.02;99174.69;5070033;28;20515;-79
2022/05/21 06:44:26;;;;;;;8.73;3.70;;;;;;;16.92;60.44;99170.16;5071192;28;20078;-80
2022/05/21 06:46:52;;;;;;;4.13;3.38;;;;;;;16.96;60.81;99173.88;5054779;28;20986;-79
2022/05/21 06:49:18;;;;;;;4.18;3.80;;;;;;;16.97;60.38;99170.91;5070676;28;20067;-79
2022/05/21 06:51:48;;;;;;;6.15;3.75;;;;;;;16.98;60.88;99169.81;5054205;28;20032;-79
2022/05/21 06:54:13;;;;;;;3.70;3.38;;;;;;;16.96;60.50;99163.09;5055326;28;20438;-78
2022/05/21 06:56:40;;;;;;;4.95;3.70;;;;;;;16.96;60.89;99174.69;5069061;28;20029;-79
2022/05/21 06:59:05;;;;;;;4.35;3.67;;;;;;;16.99;60.30;99174.13;5075209;28;20043;-79
2022/05/21 07:01:31;;;;;;;6.20;3.55;;;;;;;16.98;60.54;99171.72;5066968;28;20036;-80
2022/05/21 07:03:56;;;;;;;4.45;3.83;;;;;;;16.97;60.51;99178.22;5055783;28;20036;-80
2022/05/21 07:09:05;;;;;;;4.50;3.83;;;;;;;16.98;61.04;99163.63;5069130;28;20101;-80
2022/05/21 07:11:30;;;;;;;4.03;3.58;;;;;;;17.02;60.92;99175.44;5077176;28;20470;-80
2022/05/21 07:13:56;;;;;;;6.53;3.65;;;;;;;16.98;60.88;99174.41;5079262;28;20033;-81
2022/05/21 07:16:21;;;;;;;3.88;3.38;;;;;;;16.96;60.73;99173.88;5057264;28;20390;-79
2022/05/21 07:18:46;;;;;;;5.53;4.22;;;;;;;16.98;60.83;99169.00;5078611;28;20028;-80
2022/05/21 07:21:16;;;;;;;7.43;4.00;;;;;;;16.99;60.70;99176.81;5061753;28;20028;-80
2022/05/21 07:23:41;;;;;;;4.93;3.88;;;;;;;17.01;61.28;99174.66;5078138;28;21833;-80
2022/05/21 07:26:07;;;;;;;7.75;4.35;;;;;;;17.05;60.67;99167.63;5056312;28;20032;-82
2022/05/21 07:28:33;;;;;;;6.30;3.88;;;;;;;17.02;60.80;99173.56;5076372;28;20025;-80
2022/05/21 07:30:58;;;;;;;4.18;3.78;;;;;;;17.03;61.06;99166.28;5077283;28;20127;-81
2022/05/21 07:33:24;;;;;;;5.40;3.75;;;;;;;17.11;61.33;99179.16;5043667;28;20039;-84
2022/05/21 07:35:50;;;;;;;4.25;3.40;;;;;;;17.07;61.15;99173.53;5074946;28;20031;-83
2022/05/21 07:38:16;;;;;;;5.68;3.65;;;;;;;17.14;61.26;99181.28;5089379;28;20036;-82
2022/05/21 07:40:44;;;;;;;5.75;3.83;;;;;;;17.18;61.23;99176.94;5072010;28;20520;-83
2022/05/21 07:43:17;;;;;;;5.50;3.78;;;;;;;17.20;61.43;99178.28;5075489;28;20043;-80
2022/05/21 07:45:43;;;;;;;7.82;3.90;;;;;;;17.21;61.34;99176.38;5075138;28;20096;-82
2022/05/21 07:48:12;;;;;;;5.00;3.97;;;;;;;17.22;61.38;99184.19;5055898;28;20033;-83
2022/05/21 07:50:40;;;;;;;6.47;3.38;;;;;;;17.26;61.02;99187.13;5053998;28;20039;-81
2022/05/21 07:53:17;;;;;;;6.53;4.03;;;;;;;17.24;61.42;99189.28;5070137;28;20020;-81
2022/05/21 07:55:48;;;;;;;5.20;3.67;;;;;;;17.22;61.00;99200.38;5076053;28;20043;-81
2022/05/21 07:58:17;;;;;;;7.70;3.58;;;;;;;17.15;61.49;99196.38;5066572;28;20112;-81
2022/05/21 08:00:43;;;;;;;6.50;3.70;;;;;;;17.18;62.01;99204.72;5070376;28;21580;-79
2022/05/21 08:03:09;;;;;;;5.22;3.80;;;;;;;17.15;62.15;99210.69;5053375;28;20040;-79
2022/05/21 08:05:38;;;;;;;5.43;4.15;;;;;;;17.11;62.10;99206.13;5068812;28;20033;-79
2022/05/21 08:08:04;;;;;;;7.60;4.05;;;;;;;17.07;62.75;99214.00;5070582;28;20580;-79
2022/05/21 08:10:30;;;;;;;5.32;3.92;;;;;;;17.06;62.98;99215.06;5074206;28;20093;-79
2022/05/21 08:12:56;;;;;;;10.10;4.63;;;;;;;17.05;62.91;99204.56;5082483;28;20025;-79
2022/05/21 08:15:22;;;;;;;4.45;3.55;;;;;;;17.03;62.71;99212.94;5064814;28;20059;-80
2022/05/21 08:17:47;;;;;;;7.93;4.38;;;;;;;17.00;63.08;99215.38;5062434;28;20033;-80
2022/05/21 08:20:14;;;;;;;8.32;3.80;;;;;;;17.04;63.41;99213.72;5067314;28;20031;-78
2022/05/21 08:28:08;;;;;;;5.97;4.43;;;;;;;17.03;63.06;99214.84;5064490;28;20169;-79
2022/05/21 08:30:33;;;;;;;5.63;4.20;;;;;;;17.03;63.07;99220.22;5064251;28;20123;-80
2022/05/21 08:33:06;;;;;;;7.60;3.80;;;;;;;17.14;63.18;99227.16;5065848;28;20126;-80
2022/05/21 08:35:32;;;;;;;4.13;3.30;;;;;;;17.17;63.08;99229.28;5065544;28;20093;-80
2022/05/21 08:37:58;;;;;;;6.80;3.75;;;;;;;17.18;63.33;99237.09;5070322;28;20029;-80
2022/05/21 08:40:37;;;;;;;5.82;4.03;;;;;;;17.12;62.89;99232.03;5067351;28;20405;-80
2022/05/21 08:43:03;;;;;;;6.00;4.28;;;;;;;17.10;63.48;99226.13;5065301;28;20097;-79
2022/05/21 08:46:09;;;;;;;4.40;3.78;;;;;;;17.09;63.17;99229.88;5066894;28;20437;-79
2022/05/21 08:48:37;;;;;;;3.50;3.13;;;;;;;17.19;63.39;99236.00;5077624;28;20096;-79
2022/05/21 08:51:12;;;;;;;6.63;3.88;;;;;;;17.10;62.90;99221.50;5066187;28;20111;-80
2022/05/21 08:53:46;;;;;;;10.15;4.10;;;;;;;17.16;63.33;99224.97;5064070;28;20033;-81
2022/05/21 08:56:12;;;;;;;4.30;3.90;;;;;;;17.18;63.22;99230.91;5072893;28;20035;-81
2022/05/21 08:58:52;;;;;;;3.50;3.20;;;;;;;17.26;63.46;99230.28;5064899;28;20036;-81
2022/05/21 09:01:21;;;;;;;4.70;3.30;;;;;;;17.45;62.94;99216.91;5066459;28;20028;-81
2022/05/21 09:03:48;;;;;;;6.55;3.38;;;;;;;17.51;62.93;99216.63;5066996;28;20029;-81
2022/05/21 09:06:27;;;;;;;6.10;3.67;;;;;;;17.57;63.01;99223.56;5064941;28;20025;-81
2022/05/21 09:09:17;;;;;;;3.97;3.10;;;;;;;17.67;62.79;99219.97;5065072;28;20033;-82
2022/05/21 09:12:25;;;;;;;4.40;3.30;;;;;;;17.81;62.16;99218.19;5068578;28;20032;-81
2022/05/21 09:14:53;;;;;;;7.05;3.08;;;;;;;18.00;62.21;99216.34;5053035;28;22341;-81
2022/05/21 09:17:25;;;;;;;6.03;3.63;;;;;;;18.07;61.63;99211.41;5067308;28;20032;-81
2022/05/21 09:19:57;;;;;;;5.32;3.30;;;;;;;18.15;61.64;99207.28;5064316;28;20119;-80
2022/05/21 09:22:23;;;;;;;7.25;3.92;;;;;;;18.20;61.06;99207.22;5070833;28;20108;-80
2022/05/21 09:24:51;;;;;;;3.42;3.10;;;;;;;18.29;60.61;99203.59;5069356;28;20432;-81
2022/05/21 09:27:25;;;;;;;4.18;3.00;;;;;;;18.45;60.51;99206.94;5067988;28;20027;-81
2022/05/21 09:29:52;;;;;;;8.50;3.28;;;;;;;18.59;60.46;99207.81;5062277;28;20035;-81
2022/05/21 09:40:39;;;;;;;6.18;3.17;;;;;;;17.88;61.42;99189.78;5108866;27;20415;-82
2022/05/21 09:46:31;;;;;;;7.10;3.90;;;;;;;18.60;57.72;99202.13;5128696;27;20058;-81
2022/05/21 09:49:33;;;;;;;17.17;4.95;;;;;;;18.62;56.68;99213.44;5129179;27;20034;-79
2022/05/21 09:52:05;;;;;;;15.30;4.57;;;;;;;18.61;57.24;99211.03;5115385;27;20035;-79
2022/05/21 09:54:35;;;;;;;17.45;4.63;;;;;;;18.69;57.47;99227.41;5120664;27;20079;-80
2022/05/21 09:57:02;;;;;;;8.05;4.63;;;;;;;18.78;57.21;99211.34;5115493;27;20150;-81
2022/05/21 09:59:30;;;;;;;9.35;4.43;;;;;;;18.89;57.58;99218.22;5118241;27;20032;-80
2022/05/21 10:02:01;;;;;;;7.65;4.15;;;;;;;18.95;57.03;99219.72;5127965;27;20035;-80
2022/05/21 10:05:02;;;;;;;6.40;3.85;;;;;;;19.05;56.80;99224.97;5123729;27;20038;-81
2022/05/21 10:13:11;;;;;;;9.32;4.53;;;;;;;19.23;56.13;99229.56;5120426;27;20038;-80
2022/05/21 10:15:42;;;;;;;7.45;4.63;;;;;;;19.14;56.04;99217.81;5129255;27;20107;-80
2022/05/21 10:18:25;;;;;;;6.25;3.63;;;;;;;19.31;55.93;99238.91;5116172;27;20020;-80
2022/05/21 10:20:56;;;;;;;5.45;3.97;;;;;;;19.24;55.85;99217.63;5122516;27;20031;-80
2022/05/21 10:24:02;;;;;;;5.43;4.13;;;;;;;19.29;55.28;99233.78;5121874;27;20386;-81
2022/05/21 10:27:04;;;;;;;7.60;4.20;;;;;;;19.25;55.68;99234.69;5102441;27;20043;-80
2022/05/21 10:29:56;;;;;;;4.78;4.18;;;;;;;19.34;56.17;99243.75;5125159;27;20019;-80
2022/05/21 10:32:48;;;;;;;4.18;3.47;;;;;;;19.26;56.10;99236.31;5123320;27;20054;-80
2022/05/21 10:35:45;;;;;;;9.43;4.07;;;;;;;19.16;55.69;99234.53;5112947;27;20031;-81
2022/05/21 10:38:32;;;;;;;10.90;4.50;;;;;;;19.14;55.80;99238.63;5094673;22;20042;-81
2022/05/21 10:41:02;;;;;;;11.30;5.70;;;;;;;18.91;55.17;99226.84;5023943;28;20061;-81
2022/05/21 10:43:36;;;;;;;12.05;5.20;;;;;;;18.86;55.87;99235.00;5027736;28;20030;-80
2022/05/21 10:46:29;;;;;;;8.80;4.88;;;;;;;18.86;55.31;99239.59;5018479;28;20349;-80
2022/05/21 10:49:33;;;;;;;8.35;4.30;;;;;;;18.79;55.25;99252.69;5033753;28;20034;-80
2022/05/21 10:52:04;;;;;;;9.00;4.43;;;;;;;18.79;55.62;99245.38;5009692;28;20038;-79
2022/05/21 10:55:01;;;;;;;7.20;4.22;;;;;;;18.77;55.48;99242.16;5020867;28;20091;-80
2022/05/21 10:57:44;;;;;;;16.10;4.50;;;;;;;18.68;55.48;99228.50;5012324;28;20061;-80
2022/05/21 11:00:16;;;;;;;8.45;3.92;;;;;;;18.74;55.54;99236.56;5007516;28;20084;-80
2022/05/21 11:03:11;;;;;;;7.38;4.28;;;;;;;18.77;55.42;99234.06;5011215;28;20042;-80
2022/05/21 11:06:29;;;;;;;8.38;3.92;;;;;;;18.85;55.86;99236.09;5007168;28;20034;-79
2022/05/21 11:09:13;;;;;;;;;;;;;;;19.03;55.18;99248.81;5014475;28;20069;-80
2022/05/21 11:11:48;;;;;;;25.40;4.80;;;;;;;19.22;55.13;99238.78;5010235;28;20752;-79
2022/05/21 11:14:21;;;;;;;6.57;3.90;;;;;;;19.25;54.70;99213.84;5008880;28;20032;-80
2022/05/21 11:17:20;;;;;;;7.55;4.18;;;;;;;19.51;54.60;99235.09;5022951;28;20022;-80
2022/05/21 11:20:06;;;;;;;7.65;4.03;;;;;;;19.71;54.20;99256.41;5009767;28;20095;-79
2022/05/21 11:23:07;;;;;;;9.38;3.97;;;;;;;19.89;53.75;99237.38;5008182;28;20026;-79
2022/05/21 11:26:03;;;;;;;6.82;3.47;;;;;;;19.94;53.54;99231.84;5001690;28;20042;-78
2022/05/21 11:28:43;;;;;;;6.45;4.18;;;;;;;19.93;53.83;99243.81;5007910;28;20033;-78
2022/05/21 11:39:40;;;;;;;8.95;4.10;;;;;;;19.88;52.89;99232.25;5006721;28;20092;-78
2022/05/21 11:42:06;;;;;;;6.32;4.20;;;;;;;19.96;52.73;99235.06;5007918;28;21386;-79
2022/05/21 11:44:59;;;;;;;7.90;4.20;;;;;;;19.96;52.40;99232.34;5009510;28;20029;-78
2022/05/21 11:47:27;;;;;;;8.73;5.03;;;;;;;20.03;52.21;99234.66;5011043;28;20429;-78
2022/05/21 11:49:59;;;;;;;11.00;4.68;;;;;;;19.90;53.30;99236.28;5004022;28;20523;-78
2022/05/21 11:52:28;;;;;;;10.18;4.63;;;;;;;19.94;52.71;99231.06;5007986;28;20405;-78
2022/05/21 11:54:53;;;;;;;6.60;4.07;;;;;;;20.03;52.71;99240.09;5013941;28;20385;-79
2022/05/21 11:57:30;;;;;;;5.63;5.13;;;;;;;20.14;52.31;99228.75;5019140;28;20032;-78
2022/05/21 11:59:56;;;;;;;8.77;4.68;;;;;;;20.14;51.93;99219.81;5013894;28;20382;-79
2022/05/21 12:02:27;;;;;;;11.27;5.47;;;;;;;20.33;51.44;99244.16;5007604;28;20179;-78
2022/05/21 12:05:16;;;;;;;10.25;4.68;;;;;;;20.36;51.16;99233.50;5024338;28;20037;-79
2022/05/21 12:07:46;;;;;;;8.25;4.88;;;;;;;20.29;49.84;99230.38;5003731;28;20033;-78
2022/05/21 12:10:26;;;;;;;9.90;4.88;;;;;;;20.26;50.29;99227.47;5012134;28;20104;-78
2022/05/21 12:12:59;;;;;;;7.72;4.85;;;;;;;20.27;50.11;99227.16;5024339;28;20442;-78
2022/05/21 12:15:38;;;;;;;6.45;4.45;;;;;;;20.37;50.13;99223.47;5007779;28;20021;-78
2022/05/21 12:18:09;;;;;;;7.85;4.80;;;;;;;20.35;50.21;99229.19;5007531;28;20040;-78
2022/05/21 12:20:48;;;;;;;5.40;4.50;;;;;;;20.43;50.26;99233.91;5008548;28;20064;-78
2022/05/21 12:23:26;;;;;;;7.95;5.10;;;;;;;20.44;50.25;99232.81;4984472;28;20437;-78
2022/05/21 12:26:32;;;;;;;7.78;4.95;;;;;;;20.47;50.74;99229.47;5021751;28;20065;-78
2022/05/21 12:29:15;;;;;;;6.43;4.50;;;;;;;20.61;50.29;99227.53;5007912;28;20052;-78
2022/05/21 12:31:56;;;;;;;5.57;4.57;;;;;;;20.64;50.36;99232.34;5013314;28;20116;-78
2022/05/21 12:34:59;;;;;;;6.68;4.28;;;;;;;20.77;50.49;99225.31;5002624;28;20030;-78
2022/05/21 12:37:30;;;;;;;9.65;4.75;;;;;;;20.80;50.73;99222.78;5001399;28;20105;-78